Time;durP1;ratioP1;P1;durP2;ratioP2;P2;SDS_P1;SDS_P2;PMS_P1;PMS_P2;Temp;Humidity;BMP_temperature;BMP_pressure;BME280_temperature;BME280_humidity;BME280_pressure;Samples;Min_cycle;Max_cycle;Signal;HPM_P1;HPM_P2
2022/09/02 00:01:51;;;;;;;;;;;;;;;24.16;44.79;98381.84;5092379;28;19976;-48
2022/09/02 00:04:23;;;;;;;;;;;;;;;23.94;44.86;98377.94;5093612;28;20397;-49
2022/09/02 00:06:49;;;;;;;;;;;;;;;23.78;45.22;98371.28;5093569;28;19914;-49
2022/09/02 00:09:16;;;;;;;;;;;;;;;23.76;45.61;98368.06;5092233;28;20373;-49
2022/09/02 00:11:42;;;;;;;;;;;;;;;23.75;45.81;98369.97;5093463;28;20011;-49
2022/09/02 00:14:10;;;;;;;;;;;;;;;23.77;46.20;98372.34;5092499;28;20377;-49
2022/09/02 00:16:36;;;;;;;;;;;;;;;23.83;46.38;98382.72;5092038;28;19977;-49
2022/09/02 00:19:02;;;;;;;;;;;;;;;24.01;46.85;98380.28;5092089;28;20002;-49
2022/09/02 00:21:28;;;;;;;;;;;;;;;24.00;46.42;98371.41;5093542;28;20353;-50
2022/09/02 00:23:53;;;;;;;;;;;;;;;23.94;46.28;98369.91;5093257;28;19954;-49
2022/09/02 00:26:19;;;;;;;;;;;;;;;23.88;46.48;98373.78;5093228;28;20336;-48
2022/09/02 00:28:45;;;;;;;;;;;;;;;23.87;46.45;98369.53;5093179;28;19912;-49
2022/09/02 00:31:11;;;;;;;;;;;;;;;23.82;46.58;98364.25;5093111;28;19916;-49
2022/09/02 00:33:38;;;;;;;;;;;;;;;23.81;46.49;98368.81;5092778;28;19924;-49
2022/09/02 00:36:03;;;;;;;;;;;;;;;24.03;46.90;98353.97;5091677;28;20287;-49
2022/09/02 00:38:32;;;;;;;;;;;;;;;24.20;46.70;98359.50;5091735;28;19919;-50
2022/09/02 00:40:58;;;;;;;;;;;;;;;24.06;46.50;98348.00;5092957;28;19969;-49
2022/09/02 00:43:44;;;;;;;;;;;;;;;23.81;46.08;98341.22;5092963;28;19911;-48
2022/09/02 00:46:12;;;;;;;;;;;;;;;23.24;47.02;98339.47;5091609;28;19912;-49
2022/09/02 00:48:40;;;;;;;;;;;;;;;22.89;48.21;98343.44;5091514;28;19958;-49
2022/09/02 00:51:06;;;;;;;;;;;;;;;22.70;49.27;98354.91;5092847;28;19911;-48
2022/09/02 00:53:32;;;;;;;;;;;;;;;22.77;48.74;98351.09;5091424;28;20010;-50
2022/09/02 00:56:00;;;;;;;;;;;;;;;22.64;48.69;98356.06;5091459;28;20366;-48
2022/09/02 00:58:28;;;;;;;;;;;;;;;22.63;48.33;98359.03;5091462;28;20416;-49
2022/09/02 01:00:56;;;;;;;;;;;;;;;22.68;48.42;98358.97;5092709;28;19912;-50
2022/09/02 01:03:23;;;;;;;;;;;;;;;22.62;48.68;98360.91;5091409;28;20349;-49
2022/09/02 01:05:49;;;;;;;;;;;;;;;22.58;48.55;98361.75;5092612;28;19912;-49
2022/09/02 01:08:18;;;;;;;;;;;;;;;22.50;48.76;98358.66;5092625;28;19959;-49
2022/09/02 01:10:44;;;;;;;;;;;;;;;22.49;49.10;98361.59;5092467;28;19950;-49
2022/09/02 01:13:12;;;;;;;;;;;;;;;22.43;49.25;98358.19;5091245;28;19912;-49
2022/09/02 01:15:44;;;;;;;;;;;;;;;22.48;49.37;98363.50;5092350;28;19966;-49
2022/09/02 01:18:12;;;;;;;;;;;;;;;22.53;49.30;98352.72;5091155;28;19912;-48
2022/09/02 01:20:37;;;;;;;;;;;;;;;22.48;49.49;98358.16;5092411;28;19957;-49
2022/09/02 01:23:03;;;;;;;;;;;;;;;22.50;49.18;98349.84;5091054;28;19912;-49
2022/09/02 01:25:32;;;;;;;;;;;;;;;22.72;49.43;98351.97;5090810;28;20374;-49
2022/09/02 01:28:03;;;;;;;;;;;;;;;22.77;49.30;98345.75;5092320;28;19990;-49
2022/09/02 01:30:29;;;;;;;;;;;;;;;22.56;49.78;98340.66;5092318;28;19912;-49
2022/09/02 01:32:58;;;;;;;;;;;;;;;22.38;50.31;98341.44;5092057;28;19970;-49
2022/09/02 01:35:23;;;;;;;;;;;;;;;22.33;50.49;98343.09;5090844;28;19912;-49
2022/09/02 01:37:49;;;;;;;;;;;;;;;22.26;50.14;98341.84;5090944;28;19912;-49
2022/09/02 01:40:15;;;;;;;;;;;;;;;22.20;50.39;98342.94;5092193;28;19984;-49
2022/09/02 01:42:42;;;;;;;;;;;;;;;22.19;50.85;98349.38;5092174;28;19916;-49
2022/09/02 01:45:07;;;;;;;;;;;;;;;22.27;50.61;98351.44;5092144;28;19912;-49
2022/09/02 01:47:34;;;;;;;;;;;;;;;22.28;50.79;98350.38;5092129;28;20290;-49
2022/09/02 01:50:06;;;;;;;;;;;;;;;22.30;51.38;98348.19;5090814;28;20010;-48
2022/09/02 01:52:32;;;;;;;;;;;;;;;22.34;51.89;98349.22;5092070;28;20401;-49
2022/09/02 01:54:57;;;;;;;;;;;;;;;22.44;51.18;98345.63;5092052;28;19919;-48
2022/09/02 01:57:23;;;;;;;;;;;;;;;22.41;50.93;98346.97;5092019;28;19961;-48
2022/09/02 01:59:49;;;;;;;;;;;;;;;22.31;50.68;98355.13;5091999;28;20506;-49
2022/09/02 02:02:15;;;;;;;;;;;;;;;22.19;50.90;98342.13;5092011;28;19999;-49
2022/09/02 02:04:40;;;;;;;;;;;;;;;22.12;50.88;98353.16;5091971;28;20057;-48
2022/09/02 02:07:06;;;;;;;;;;;;;;;22.05;51.12;98355.38;5090657;28;19916;-48
2022/09/02 02:09:31;;;;;;;;;;;;;;;22.06;51.03;98358.88;5090608;28;20321;-49
2022/09/02 02:11:57;;;;;;;;;;;;;;;22.07;50.94;98353.25;5090578;28;19912;-49
2022/09/02 02:14:22;;;;;;;;;;;;;;;22.11;51.29;98351.59;5091864;28;19912;-49
2022/09/02 02:16:48;;;;;;;;;;;;;;;22.23;50.81;98342.38;5091845;28;20386;-49
2022/09/02 02:19:14;;;;;;;;;;;;;;;22.12;51.23;98331.00;5091795;28;19916;-49
2022/09/02 02:21:39;;;;;;;;;;;;;;;22.02;51.50;98339.13;5091811;28;19962;-49
2022/09/02 02:24:05;;;;;;;;;;;;;;;21.92;51.69;98337.38;5091785;28;19919;-49
2022/09/02 02:26:31;;;;;;;;;;;;;;;22.05;51.34;98352.69;5091741;28;19939;-49
2022/09/02 02:28:57;;;;;;;;;;;;;;;22.20;51.31;98353.66;5090475;28;19915;-49
2022/09/02 02:31:23;;;;;;;;;;;;;;;22.22;51.46;98351.47;5091741;28;20049;-49
2022/09/02 02:33:49;;;;;;;;;;;;;;;22.30;51.02;98349.00;5091413;28;19916;-49
2022/09/02 02:36:19;;;;;;;;;;;;;;;22.39;50.08;98348.38;5091632;28;19912;-49
2022/09/02 02:38:45;;;;;;;;;;;;;;;22.46;50.29;98351.50;5095375;28;19999;-50
2022/09/02 02:41:12;;;;;;;;;;;;;;;22.79;49.92;98346.25;5095251;28;19923;-49
2022/09/02 02:43:38;;;;;;;;;;;;;;;23.11;49.17;98350.91;5095465;28;20396;-49
2022/09/02 02:46:04;;;;;;;;;;;;;;;23.17;48.40;98344.38;5095451;28;20296;-49
2022/09/02 02:48:30;;;;;;;;;;;;;;;22.97;48.55;98345.44;5094211;28;20292;-48
2022/09/02 02:50:55;;;;;;;;;;;;;;;22.69;49.34;98344.50;5095118;28;19994;-49
2022/09/02 02:53:21;;;;;;;;;;;;;;;22.52;50.09;98340.44;5095058;28;20434;-48
2022/09/02 02:55:47;;;;;;;;;;;;;;;22.41;50.15;98338.97;5095195;28;19912;-48
2022/09/02 02:58:12;;;;;;;;;;;;;;;22.18;50.54;98340.56;5093696;28;19922;-49
2022/09/02 03:00:38;;;;;;;;;;;;;;;21.98;51.19;98341.56;5094898;28;20010;-49
2022/09/02 03:03:05;;;;;;;;;;;;;;;22.04;50.75;98342.31;5094879;28;19977;-49
2022/09/02 03:05:32;;;;;;;;;;;;;;;22.10;50.99;98347.31;5093420;28;19942;-48
2022/09/02 03:07:58;;;;;;;;;;;;;;;22.07;50.78;98345.22;5093465;28;19912;-48
2022/09/02 03:10:24;;;;;;;;;;;;;;;22.15;50.81;98338.44;5094712;28;19912;-48
2022/09/02 03:12:49;;;;;;;;;;;;;;;22.25;50.47;98335.69;5094733;28;19912;-49
2022/09/02 03:15:16;;;;;;;;;;;;;;;22.35;50.50;98340.09;5094812;28;19973;-49
2022/09/02 03:17:42;;;;;;;;;;;;;;;22.40;49.78;98332.03;5094581;28;20403;-49
2022/09/02 03:20:08;;;;;;;;;;;;;;;22.29;50.25;98327.88;5094530;28;19934;-49
2022/09/02 03:22:37;;;;;;;;;;;;;;;22.27;50.48;98325.50;5094477;28;20342;-49
2022/09/02 03:25:07;;;;;;;;;;;;;;;22.35;50.70;98324.06;5094402;28;19912;-48
2022/09/02 03:27:33;;;;;;;;;;;;;;;22.45;50.11;98321.25;5093050;28;19919;-48
2022/09/02 03:29:59;;;;;;;;;;;;;;;22.45;50.33;98323.94;5094351;28;19924;-49
2022/09/02 03:32:24;;;;;;;;;;;;;;;22.56;50.44;98324.63;5094056;28;20313;-49
2022/09/02 03:34:49;;;;;;;;;;;;;;;22.84;49.51;98320.22;5092901;28;19993;-49
2022/09/02 03:37:15;;;;;;;;;;;;;;;23.01;49.55;98329.59;5094232;28;20015;-49
2022/09/02 03:39:40;;;;;;;;;;;;;;;22.99;48.82;98323.75;5092833;28;19926;-49
2022/09/02 03:42:07;;;;;;;;;;;;;;;22.92;49.32;98326.81;5094378;28;19919;-49
2022/09/02 03:44:33;;;;;;;;;;;;;;;22.93;49.38;98323.03;5092733;28;19934;-47
2022/09/02 03:46:58;;;;;;;;;;;;;;;22.97;49.54;98323.25;5094270;28;20388;-48
2022/09/02 03:49:25;;;;;;;;;;;;;;;22.90;49.40;98321.75;5092569;28;19916;-49
2022/09/02 03:51:51;;;;;;;;;;;;;;;22.80;49.35;98324.56;5093935;28;19969;-48
2022/09/02 03:54:17;;;;;;;;;;;;;;;22.69;49.74;98323.09;5093699;28;19916;-48
2022/09/02 03:56:43;;;;;;;;;;;;;;;22.79;49.62;98316.81;5093810;28;19920;-48
2022/09/02 03:59:08;;;;;;;;;;;;;;;23.00;49.62;98319.97;5092493;28;20267;-47
2022/09/02 04:01:34;;;;;;;;;;;;;;;23.03;48.61;98322.91;5093682;28;20006;-46
2022/09/02 04:04:00;;;;;;;;;;;;;;;22.97;49.11;98317.91;5092429;28;19954;-47
2022/09/02 04:06:26;;;;;;;;;;;;;;;22.96;49.12;98322.47;5093888;28;19961;-47
2022/09/02 04:08:52;;;;;;;;;;;;;;;22.98;49.11;98322.16;5093864;28;19912;-48
2022/09/02 04:11:19;;;;;;;;;;;;;;;22.91;49.14;98312.59;5093554;28;20428;-49
2022/09/02 04:13:45;;;;;;;;;;;;;;;22.86;49.46;98318.03;5093514;28;20389;-49
2022/09/02 04:16:13;;;;;;;;;;;;;;;22.70;49.77;98316.69;5075342;28;19926;-49
2022/09/02 04:18:38;;;;;;;;;;;;;;;22.74;49.82;98323.03;5092108;28;19920;-49
2022/09/02 04:21:04;;;;;;;;;;;;;;;22.67;49.60;98325.28;5092048;28;19916;-49
2022/09/02 04:23:30;;;;;;;;;;;;;;;22.45;49.60;98323.94;5091963;28;19916;-49
2022/09/02 04:25:55;;;;;;;;;;;;;;;22.45;49.83;98325.81;5093198;28;20313;-49
2022/09/02 04:28:21;;;;;;;;;;;;;;;22.70;50.00;98325.50;5093218;28;20019;-49
2022/09/02 04:30:47;;;;;;;;;;;;;;;22.88;49.34;98331.94;5091891;28;19912;-49
2022/09/02 04:33:12;;;;;;;;;;;;;;;22.94;49.17;98335.34;5092881;28;20300;-49
2022/09/02 04:35:45;;;;;;;;;;;;;;;22.91;48.93;98333.22;5092980;28;19923;-49
2022/09/02 04:38:11;;;;;;;;;;;;;;;22.90;48.95;98332.44;5093077;28;19916;-49
2022/09/02 04:40:40;;;;;;;;;;;;;;;23.05;48.99;98331.44;5093036;28;19919;-49
2022/09/02 04:43:06;;;;;;;;;;;;;;;23.21;48.88;98329.31;5093012;28;20016;-49
2022/09/02 04:45:31;;;;;;;;;;;;;;;23.31;48.51;98334.50;5091582;28;19963;-49
2022/09/02 04:47:57;;;;;;;;;;;;;;;23.30;48.43;98338.28;5092847;28;20335;-49
2022/09/02 04:50:22;;;;;;;;;;;;;;;23.20;48.38;98343.81;5091517;28;19919;-48
2022/09/02 04:52:47;;;;;;;;;;;;;;;23.15;48.65;98335.84;5091497;28;19912;-49
2022/09/02 04:55:13;;;;;;;;;;;;;;;23.20;48.21;98338.47;5091395;28;20002;-49
2022/09/02 04:57:39;;;;;;;;;;;;;;;23.19;48.11;98342.22;5092668;28;19916;-49
2022/09/02 05:00:06;;;;;;;;;;;;;;;23.16;48.21;98337.44;5092208;28;19961;-49
2022/09/02 05:02:34;;;;;;;;;;;;;;;23.02;48.77;98321.34;5092623;28;19916;-49
2022/09/02 05:05:00;;;;;;;;;;;;;;;22.99;48.72;98315.72;5092624;28;19912;-49
2022/09/02 05:07:25;;;;;;;;;;;;;;;22.94;48.82;98320.06;5092823;28;19922;-48
2022/09/02 05:10:01;;;;;;;;;;;;;;;22.92;48.96;98310.75;5091269;28;20442;-49
2022/09/02 05:12:27;;;;;;;;;;;;;;;22.88;49.17;98309.75;5092590;28;19912;-49
2022/09/02 05:14:55;;;;;;;;;;;;;;;22.74;49.09;98313.13;5092413;28;20335;-49
2022/09/02 05:17:21;;;;;;;;;;;;;;;22.58;49.38;98310.94;5092451;28;19915;-47
2022/09/02 05:19:46;;;;;;;;;;;;;;;22.46;49.73;98317.53;5092472;28;19919;-47
2022/09/02 05:22:12;;;;;;;;;;;;;;;22.38;50.11;98315.50;5091361;28;20296;-47
2022/09/02 05:24:37;;;;;;;;;;;;;;;22.31;50.30;98309.69;5092332;28;20007;-47
2022/09/02 05:27:03;;;;;;;;;;;;;;;22.34;50.30;98307.22;5092348;28;20446;-47
2022/09/02 05:29:28;;;;;;;;;;;;;;;22.42;50.00;98303.13;5092305;28;20428;-47
2022/09/02 05:31:54;;;;;;;;;;;;;;;22.38;50.14;98307.47;5090945;28;20361;-47
2022/09/02 05:34:19;;;;;;;;;;;;;;;22.47;50.57;98300.38;5092048;28;19968;-47
2022/09/02 05:36:45;;;;;;;;;;;;;;;23.12;49.88;98305.09;5092205;28;20286;-46
2022/09/02 05:39:10;;;;;;;;;;;;;;;24.07;47.85;98302.13;5090978;28;19963;-47
2022/09/02 05:41:36;;;;;;;;;;;;;;;24.90;46.43;98296.63;5090873;28;19916;-47
2022/09/02 05:44:02;;;;;;;;;;;;;;;25.60;44.57;98301.69;5092162;28;20057;-47
2022/09/02 05:46:28;;;;;;;;;;;;;;;25.97;43.13;98297.75;5092228;28;20507;-48
2022/09/02 05:49:11;;;;;;;;;;;;;;;26.41;42.32;98303.25;5092180;28;19963;-48
2022/09/02 05:51:39;;;;;;;;;;;;;;;26.51;41.52;98298.34;5092154;28;19993;-48
2022/09/02 05:54:28;;;;;;;;;;;;;;;26.29;41.90;98293.09;5092211;28;19995;-48
2022/09/02 05:56:58;;;;;;;;;;;;;;;25.86;42.15;98299.13;5086514;28;19919;-48
2022/09/02 05:59:25;;;;;;;;;;;;;;;25.19;43.50;98300.75;5092090;28;19989;-47
2022/09/02 06:01:51;;;;;;;;;;;;;;;24.86;44.53;98292.94;5092070;28;19954;-48
2022/09/02 06:04:17;;;;;;;;;;;;;;;24.84;44.93;98295.16;5091985;28;19911;-46
2022/09/02 06:06:42;;;;;;;;;;;;;;;25.12;44.25;98297.72;5092010;28;19920;-47
2022/09/02 06:09:09;;;;;;;;;;;;;;;25.63;43.00;98299.16;5091949;28;19916;-47
2022/09/02 06:11:41;;;;;;;;;;;;;;;26.06;42.58;98298.56;5092651;28;19920;-47
2022/09/02 06:14:07;;;;;;;;;;;;;;;26.61;41.16;98302.66;5095963;28;19916;-48
2022/09/02 06:16:34;;;;;;;;;;;;;;;27.18;40.22;98303.59;5095641;28;20407;-47
2022/09/02 06:19:02;;;;;;;;;;;;;;;27.59;39.07;98296.88;5095764;28;20002;-48
2022/09/02 06:21:29;;;;;;;;;;;;;;;28.05;38.08;98296.09;5095581;28;20381;-48
2022/09/02 06:23:54;;;;;;;;;;;;;;;28.32;37.46;98288.63;5094322;28;20393;-47
2022/09/02 06:26:20;;;;;;;;;;;;;;;28.59;37.41;98300.06;5095599;28;19919;-47
2022/09/02 06:28:46;;;;;;;;;;;;;;;28.72;36.64;98296.31;5095580;28;19919;-48
2022/09/02 06:31:14;;;;;;;;;;;;;;;28.56;36.83;98300.72;5094209;28;19916;-48
2022/09/02 06:33:40;;;;;;;;;;;;;;;28.33;37.24;98308.31;5095173;28;19916;-47
2022/09/02 06:36:07;;;;;;;;;;;;;;;28.66;36.91;98308.44;5095339;28;20005;-47
2022/09/02 06:38:35;;;;;;;;;;;;;;;29.03;35.64;98312.09;5094037;28;20308;-49
2022/09/02 06:41:00;;;;;;;;;;;;;;;29.05;35.36;98315.25;5095359;28;19912;-48
2022/09/02 06:43:26;;;;;;;;;;;;;;;29.00;35.80;98320.88;5093956;28;19912;-49
2022/09/02 06:45:51;;;;;;;;;;;;;;;29.12;35.60;98320.16;5095267;28;19912;-49
2022/09/02 06:48:17;;;;;;;;;;;;;;;29.29;35.78;98311.09;5095478;28;20349;-49
2022/09/02 06:50:45;;;;;;;;;;;;;;;29.45;35.84;98322.84;5093776;28;19912;-48
2022/09/02 06:53:11;;;;;;;;;;;;;;;29.86;35.19;98318.44;5095074;28;20308;-49
2022/09/02 06:55:41;;;;;;;;;;;;;;;30.92;34.25;98324.00;5093675;28;19927;-49
2022/09/02 06:58:07;;;;;;;;;;;;;;;31.69;32.36;98319.44;5094005;28;20014;-48
2022/09/02 07:00:34;;;;;;;;;;;;;;;32.54;31.58;98309.81;5094907;28;20431;-49
2022/09/02 07:05:44;;;;;;;;;;;;;;;33.76;29.66;98300.50;5094917;28;19919;-51
2022/09/02 07:08:09;;;;;;;;;;;;;;;33.99;29.02;98293.09;5094793;28;19912;-48
2022/09/02 07:10:38;;;;;;;;;;;;;;;34.20;28.83;98292.63;5094767;28;20362;-48
2022/09/02 07:13:04;;;;;;;;;;;;;;;34.32;27.63;98293.56;5094745;28;20007;-48
2022/09/02 07:15:29;;;;;;;;;;;;;;;34.31;27.85;98309.16;5093339;28;20350;-49
2022/09/02 07:17:55;;;;;;;;;;;;;;;34.66;27.45;98305.34;5094625;28;20014;-49
2022/09/02 07:20:21;;;;;;;;;;;;;;;34.98;26.63;98310.41;5094491;28;19954;-49
2022/09/02 07:22:46;;;;;;;;;;;;;;;35.28;26.39;98293.22;5092810;28;20290;-50
2022/09/02 07:25:12;;;;;;;;;;;;;;;35.80;26.33;98294.06;5093114;28;19959;-48
2022/09/02 07:27:38;;;;;;;;;;;;;;;36.41;25.62;98302.69;5093249;28;19921;-48
2022/09/02 07:30:05;;;;;;;;;;;;;;;36.14;24.54;98302.88;5093090;28;19912;-47
2022/09/02 07:32:31;;;;;;;;;;;;;;;36.37;25.16;98302.66;5094294;28;19985;-47
2022/09/02 07:34:56;;;;;;;;;;;;;;;36.70;24.74;98302.81;5094300;28;20369;-48
2022/09/02 07:37:22;;;;;;;;;;;;;;;36.88;24.03;98302.91;5092954;28;19912;-50
2022/09/02 07:39:48;;;;;;;;;;;;;;;36.81;23.82;98309.13;5092852;28;19913;-50
2022/09/02 07:42:14;;;;;;;;;;;;;;;36.31;24.33;98300.66;5094130;28;19959;-48
2022/09/02 07:44:40;;;;;;;;;;;;;;;35.72;24.73;98303.38;5094069;28;20020;-48
2022/09/02 07:47:06;;;;;;;;;;;;;;;35.50;25.02;98294.97;5093983;28;19926;-50
2022/09/02 07:49:31;;;;;;;;;;;;;;;35.32;25.07;98296.75;5092739;28;20128;-49
2022/09/02 07:51:57;;;;;;;;;;;;;;;35.58;24.59;98310.25;5092664;28;19919;-48
2022/09/02 07:54:23;;;;;;;;;;;;;;;35.29;25.14;98308.41;5092538;28;19916;-48
2022/09/02 07:56:49;;;;;;;;;;;;;;;34.68;25.72;98308.47;5093823;28;20421;-50
2022/09/02 07:59:15;;;;;;;;;;;;;;;33.60;26.99;98314.97;5093766;28;19958;-48
2022/09/02 08:01:42;;;;;;;;;;;;;;;33.67;28.15;98311.63;5093708;28;19923;-48
2022/09/02 08:04:08;;;;;;;;;;;;;;;34.02;26.73;98314.13;5093621;28;20457;-48
2022/09/02 08:06:34;;;;;;;;;;;;;;;33.86;26.98;98316.22;5093646;28;19919;-49
2022/09/02 08:09:00;;;;;;;;;;;;;;;33.79;26.74;98311.44;5093560;28;19912;-49
2022/09/02 08:11:26;;;;;;;;;;;;;;;33.61;27.36;98313.06;5092172;28;19919;-49
2022/09/02 08:13:51;;;;;;;;;;;;;;;33.72;27.00;98307.81;5092222;28;19920;-48
2022/09/02 08:16:17;;;;;;;;;;;;;;;33.93;27.05;98310.88;5093367;28;19960;-48
2022/09/02 08:18:43;;;;;;;;;;;;;;;34.18;26.56;98303.09;5092158;28;20105;-49
2022/09/02 08:21:08;;;;;;;;;;;;;;;34.31;26.50;98311.88;5093366;28;19912;-50
2022/09/02 08:23:34;;;;;;;;;;;;;;;34.90;25.70;98311.47;5093279;28;19916;-48
2022/09/02 08:26:01;;;;;;;;;;;;;;;35.50;24.72;98311.34;5092061;28;19912;-48
2022/09/02 08:28:26;;;;;;;;;;;;;;;35.91;24.56;98311.31;5093507;28;19912;-48
2022/09/02 08:30:53;;;;;;;;;;;;;;;36.51;24.03;98326.53;5091865;28;19965;-49
2022/09/02 08:33:19;;;;;;;;;;;;;;;37.04;23.54;98322.47;5092843;28;20368;-48
2022/09/02 08:35:45;;;;;;;;;;;;;;;36.83;23.80;98317.72;5092316;28;19911;-50
2022/09/02 08:38:10;;;;;;;;;;;;;;;36.44;24.27;98333.91;5093035;28;19916;-50
2022/09/02 08:40:38;;;;;;;;;;;;;;;36.39;23.82;98341.31;5093017;28;20373;-49
2022/09/02 08:43:08;;;;;;;;;;;;;;;35.92;23.94;98345.66;5092941;28;19916;-50
2022/09/02 08:45:37;;;;;;;;;;;;;;;35.17;25.20;98342.19;5091603;28;19916;-49
2022/09/02 08:48:20;;;;;;;;;;;;;;;35.03;25.53;98342.78;5092864;28;19916;-48
2022/09/02 08:50:46;;;;;;;;;;;;;;;34.99;25.82;98336.50;5091606;28;20292;-49
2022/09/02 08:53:29;;;;;;;;;;;;;;;35.85;25.02;98334.66;5092850;28;19916;-48
2022/09/02 08:55:56;;;;;;;;;;;;;;;36.19;24.55;98340.81;5092756;28;19961;-48
2022/09/02 08:58:27;;;;;;;;;;;;;;;36.46;24.88;98348.75;5092667;28;19916;-47
2022/09/02 09:01:16;;;;;;;;;;;;;;;37.32;24.33;98342.91;5092670;28;20007;-49
2022/09/02 09:03:41;;;;;;;;;;;;;;;38.14;23.24;98344.97;5086847;28;19915;-49
2022/09/02 09:06:13;;;;;;;;;;;;;;;38.68;22.63;98342.88;5092606;28;19916;-48
2022/09/02 09:08:47;;;;;;;;;;;;;;;38.54;22.29;98346.47;5092642;28;20057;-49
2022/09/02 09:11:34;;;;;;;;;;;;;;;38.63;21.54;98340.53;5092573;28;20470;-49
2022/09/02 09:14:08;;;;;;;;;;;;;;;38.26;22.42;98344.53;5091303;28;19912;-50
2022/09/02 09:17:00;;;;;;;;;;;;;;;37.68;23.52;98348.47;5092454;28;20006;-50
2022/09/02 09:19:38;;;;;;;;;;;;;;;37.57;22.82;98346.47;5088890;28;19965;-48
2022/09/02 09:22:04;;;;;;;;;;;;;;;37.56;22.96;98344.91;5092421;28;19915;-49
2022/09/02 09:24:29;;;;;;;;;;;;;;;36.88;23.69;98341.19;5092239;28;20416;-48
2022/09/02 09:26:55;;;;;;;;;;;;;;;36.61;24.45;98343.41;5092377;28;19916;-49
2022/09/02 09:29:21;;;;;;;;;;;;;;;37.22;23.75;98340.94;5092342;28;19923;-49
2022/09/02 09:31:57;;;;;;;;;;;;;;;37.87;23.74;98341.81;5092340;28;19962;-49
2022/09/02 09:34:42;;;;;;;;;;;;;;;38.55;22.89;98330.78;5092062;28;19916;-48
2022/09/02 09:37:26;;;;;;;;;;;;;;;39.40;22.57;98328.81;5090465;28;20352;-50
2022/09/02 09:39:52;;;;;;;;;;;;;;;40.52;21.72;98334.16;5092268;28;20070;-50
2022/09/02 09:42:28;;;;;;;;;;;;;;;41.28;21.01;98345.81;5092136;28;19912;-53
2022/09/02 09:44:54;;;;;;;;;;;;;;;41.62;20.28;98335.91;5092297;28;20339;-52
2022/09/02 09:47:21;;;;;;;;;;;;;;;41.37;20.77;98350.78;5095623;28;19998;-52
2022/09/02 09:50:15;;;;;;;;;;;;;;;40.78;20.87;98345.69;5096334;28;19912;-52
2022/09/02 09:52:41;;;;;;;;;;;;;;;40.16;21.84;98356.50;5096333;28;20006;-52
2022/09/02 09:55:10;;;;;;;;;;;;;;;39.70;22.24;98347.47;5096124;28;19912;-52
2022/09/02 09:57:37;;;;;;;;;;;;;;;39.24;22.50;98354.03;5096159;28;19995;-51
2022/09/02 10:00:09;;;;;;;;;;;;;;;38.60;23.13;98354.25;5096137;28;19964;-52
2022/09/02 10:02:44;;;;;;;;;;;;;;;38.02;23.29;98354.34;5096122;28;19915;-52
2022/09/02 10:05:16;;;;;;;;;;;;;;;37.36;23.85;98357.38;5096113;28;19912;-49
2022/09/02 10:07:43;;;;;;;;;;;;;;;36.78;24.09;98361.84;5096051;28;19919;-49
2022/09/02 10:10:20;;;;;;;;;;;;;;;36.01;24.89;98358.97;5095932;28;19917;-48
2022/09/02 10:12:46;;;;;;;;;;;;;;;35.46;25.15;98353.41;5095984;28;19919;-47
2022/09/02 10:15:12;;;;;;;;;;;;;;;34.86;24.70;98360.50;5095757;28;19916;-48
2022/09/02 10:17:39;;;;;;;;;;;;;;;34.42;24.62;98345.47;5094495;28;19916;-49
2022/09/02 10:20:07;;;;;;;;;;;;;;;34.11;24.84;98356.66;5095793;28;19912;-48
2022/09/02 10:22:51;;;;;;;;;;;;;;;33.82;24.40;98345.31;5095769;28;19958;-49
2022/09/02 10:25:35;;;;;;;;;;;;;;;33.48;25.31;98347.03;5095599;28;19912;-48
2022/09/02 10:28:11;;;;;;;;;;;;;;;33.61;24.87;98351.16;5095879;28;19912;-48
2022/09/02 10:30:44;;;;;;;;;;;;;;;33.95;25.04;98349.44;5095469;28;19912;-48
2022/09/02 10:33:32;;;;;;;;;;;;;;;34.28;24.67;98356.19;5095359;28;19916;-48
2022/09/02 10:36:00;;;;;;;;;;;;;;;34.35;24.01;98337.22;5089845;28;19943;-48
2022/09/02 10:38:31;;;;;;;;;;;;;;;34.70;23.91;98354.47;5095402;28;20381;-48
2022/09/02 10:41:22;;;;;;;;;;;;;;;35.00;23.74;98352.50;5095403;28;19918;-48
2022/09/02 10:43:56;;;;;;;;;;;;;;;35.80;23.28;98352.19;5095402;28;19916;-48
2022/09/02 10:46:23;;;;;;;;;;;;;;;36.51;22.72;98347.63;5095313;28;19916;-48
2022/09/02 10:49:04;;;;;;;;;;;;;;;37.60;22.11;98344.16;5095244;28;19957;-49
2022/09/02 10:51:56;;;;;;;;;;;;;;;39.10;20.67;98334.88;5093960;28;19965;-48
2022/09/02 10:54:40;;;;;;;;;;;;;;;38.85;20.41;98329.50;5092996;28;19927;-49
2022/09/02 10:57:10;;;;;;;;;;;;;;;37.48;21.27;98329.63;5094467;28;19916;-49
2022/09/02 10:59:52;;;;;;;;;;;;;;;36.31;22.08;98338.94;5093808;28;19912;-49
2022/09/02 11:02:29;;;;;;;;;;;;;;;35.75;22.77;98333.41;5095211;28;20037;-49
2022/09/02 11:04:58;;;;;;;;;;;;;;;35.80;23.31;98327.63;5094942;28;19918;-50
2022/09/02 11:07:30;;;;;;;;;;;;;;;36.74;22.87;98325.50;5093507;28;19912;-48
2022/09/02 11:09:59;;;;;;;;;;;;;;;37.60;22.21;98316.78;5093557;28;20282;-49
2022/09/02 11:12:28;;;;;;;;;;;;;;;37.33;22.24;98315.16;5093369;28;19912;-49
2022/09/02 11:15:14;;;;;;;;;;;;;;;37.28;22.38;98315.53;5094895;28;19911;-49
2022/09/02 11:17:46;;;;;;;;;;;;;;;37.31;22.06;98314.75;5094653;28;20301;-49
2022/09/02 11:20:30;;;;;;;;;;;;;;;36.96;22.12;98315.41;5093268;28;19922;-49
2022/09/02 11:22:55;;;;;;;;;;;;;;;36.08;23.10;98322.72;5093275;28;19918;-49
2022/09/02 11:25:24;;;;;;;;;;;;;;;35.82;23.55;98315.50;5094416;28;20311;-49
2022/09/02 11:28:08;;;;;;;;;;;;;;;35.88;23.74;98309.34;5094423;28;19912;-48
2022/09/02 11:30:43;;;;;;;;;;;;;;;35.86;23.88;98306.22;5094410;28;19912;-47
2022/09/02 11:33:17;;;;;;;;;;;;;;;35.88;23.88;98303.06;5094148;28;19959;-47
2022/09/02 11:35:43;;;;;;;;;;;;;;;35.74;23.63;98306.50;5094466;28;20023;-48
2022/09/02 11:38:28;;;;;;;;;;;;;;;35.56;24.11;98309.06;5093210;28;20014;-47
2022/09/02 11:40:56;;;;;;;;;;;;;;;35.45;23.69;98300.75;5094154;28;19923;-48
2022/09/02 11:43:35;;;;;;;;;;;;;;;35.48;23.56;98302.75;5094134;28;19916;-48
2022/09/02 11:46:24;;;;;;;;;;;;;;;35.58;23.29;98304.78;5094055;28;19912;-49
2022/09/02 11:48:52;;;;;;;;;;;;;;;35.63;23.26;98311.06;5094001;28;19963;-48
2022/09/02 11:51:37;;;;;;;;;;;;;;;35.99;23.03;98299.25;5093985;28;19919;-49
2022/09/02 11:54:04;;;;;;;;;;;;;;;36.82;22.54;98297.00;5093892;28;19920;-48
2022/09/02 11:56:38;;;;;;;;;;;;;;;37.41;21.53;98296.78;5092453;28;19916;-48
2022/09/02 11:59:06;;;;;;;;;;;;;;;37.02;21.27;98288.47;5093788;28;19919;-48
2022/09/02 12:01:46;;;;;;;;;;;;;;;36.67;21.44;98282.50;5093771;28;20015;-49
2022/09/02 12:04:32;;;;;;;;;;;;;;;35.79;21.62;98297.94;5094029;28;19919;-50
2022/09/02 12:07:07;;;;;;;;;;;;;;;34.84;22.75;98302.06;5092159;28;20009;-49
2022/09/02 12:09:55;;;;;;;;;;;;;;;34.38;23.02;98284.72;5093619;28;19912;-49
2022/09/02 12:12:37;;;;;;;;;;;;;;;34.27;23.64;98299.31;5087741;28;19912;-48
2022/09/02 12:15:06;;;;;;;;;;;;;;;34.46;23.64;98287.53;5093392;28;20387;-49
2022/09/02 12:17:43;;;;;;;;;;;;;;;34.94;23.16;98290.47;5093475;28;19916;-48
2022/09/02 12:20:10;;;;;;;;;;;;;;;35.28;23.04;98288.53;5093366;28;19912;-50
2022/09/02 12:22:39;;;;;;;;;;;;;;;35.39;23.11;98283.94;5093423;28;20022;-49
2022/09/02 12:25:24;;;;;;;;;;;;;;;35.16;23.35;98284.13;5092068;28;19912;-50
2022/09/02 12:28:08;;;;;;;;;;;;;;;34.79;23.69;98284.88;5091853;28;19916;-50
2022/09/02 12:31:29;;;;;;;;;;;;;;;34.30;24.22;98271.38;5093283;28;19916;-49
2022/09/02 12:33:50;;;;;;;;;;;;;;;33.72;24.79;98292.25;5090681;28;19926;-49
2022/09/02 12:36:34;;;;;;;;;;;;;;;33.42;25.75;98297.56;5093018;28;19918;-49
2022/09/02 12:39:19;;;;;;;;;;;;;;;33.34;26.10;98295.88;5093084;28;19915;-49
2022/09/02 12:41:48;;;;;;;;;;;;;;;33.24;25.93;98286.38;5093056;28;19959;-49
2022/09/02 12:44:25;;;;;;;;;;;;;;;33.36;25.83;98282.69;5092986;28;19912;-48
2022/09/02 12:47:01;;;;;;;;;;;;;;;33.73;25.94;98282.19;5091754;28;19977;-50
2022/09/02 12:49:47;;;;;;;;;;;;;;;33.91;25.63;98288.69;5093230;28;19912;-49
2022/09/02 12:52:31;;;;;;;;;;;;;;;33.91;25.48;98283.25;5091546;28;19915;-49
2022/09/02 12:55:02;;;;;;;;;;;;;;;34.05;25.50;98273.69;5091478;28;20332;-48
2022/09/02 12:57:43;;;;;;;;;;;;;;;34.11;25.61;98270.31;5092848;28;19934;-48
2022/09/02 13:00:18;;;;;;;;;;;;;;;34.13;25.37;98269.91;5092746;28;19912;-50
2022/09/02 13:02:57;;;;;;;;;;;;;;;34.17;25.53;98262.63;5092712;28;20378;-50